Swan, Texas
Current Conditions -  °F | °C
As of 9:53 PM on Tuesday 21 Oct 2014 (Local Time) from KTYR Reporting Station
Clear Clear  
Wind Chill: 67°   Ceiling: Unl
Heat Index: 67°   Visibility: 9mi
Dew Point: 61°   Wind: 5mph
Humidity: 81%   Direction: 70°ENE
Pressure: 30.07"   Gusts: NA
Location:  32.394°N, 95.4356°W
Report Text: KTYR 220253Z 07004KT 9SM CLR 19/16 A3007 RMK AO2 SLP175 T01940161 51011
Loading
Personal Weather Stations






























Interactive Weather Map
Tropical Storm Tracking
New forecast layout! Learn more

10-Day Weather Forecast

Advertisements
Track Severe Weather on mobile